createdAt,value
2023-11-15T00:01:17.191Z,7.57
2023-11-15T00:03:44.807Z,7.50
2023-11-15T00:06:13.545Z,7.28
2023-11-15T00:08:41.543Z,7.78
2023-11-15T00:11:09.432Z,7.95
2023-11-15T00:13:37.103Z,8.05
2023-11-15T00:16:05.951Z,7.57
2023-11-15T00:18:33.607Z,8.13
2023-11-15T00:21:01.206Z,7.57
2023-11-15T00:23:28.875Z,8.10
2023-11-15T00:25:56.617Z,7.60
2023-11-15T00:28:24.146Z,7.82
2023-11-15T00:30:51.782Z,7.78
2023-11-15T00:33:19.486Z,8.25
2023-11-15T00:35:47.477Z,7.97
2023-11-15T00:38:16.313Z,8.07
2023-11-15T00:40:44.154Z,8.57
2023-11-15T00:43:11.820Z,8.80
2023-11-15T00:45:39.686Z,8.80
2023-11-15T00:48:07.438Z,9.02
2023-11-15T00:50:35.170Z,9.73
2023-11-15T00:53:04.977Z,9.45
2023-11-15T00:55:32.703Z,9.30
2023-11-15T00:58:00.854Z,8.98
2023-11-15T01:00:33.773Z,9.15
2023-11-15T01:03:02.773Z,8.88
2023-11-15T01:05:30.537Z,9.50
2023-11-15T01:08:01.582Z,8.80
2023-11-15T01:10:29.217Z,9.18
2023-11-15T01:12:56.950Z,8.80
2023-11-15T01:15:25.533Z,8.90
2023-11-15T01:17:53.206Z,8.25
2023-11-15T01:20:20.963Z,9.02
2023-11-15T01:22:48.702Z,9.57
2023-11-15T01:25:16.425Z,8.68
2023-11-15T01:27:44.063Z,9.57
2023-11-15T01:30:11.868Z,9.27
2023-11-15T01:32:39.745Z,9.90
2023-11-15T01:35:07.686Z,9.80
2023-11-15T01:37:35.271Z,9.13
2023-11-15T01:40:03.124Z,9.98
2023-11-15T01:42:32.079Z,9.40
2023-11-15T01:44:59.695Z,9.57
2023-11-15T01:47:27.576Z,9.60
2023-11-15T01:49:55.513Z,9.13
2023-11-15T01:52:23.181Z,9.35
2023-11-15T01:54:52.110Z,9.68
2023-11-15T01:57:20.020Z,9.43
2023-11-15T01:59:47.707Z,9.30
2023-11-15T02:02:16.205Z,10.00
2023-11-15T02:04:43.826Z,9.18
2023-11-15T02:07:11.404Z,10.55
2023-11-15T02:09:39.108Z,9.88
2023-11-15T02:12:07.289Z,10.18
2023-11-15T02:14:35.035Z,9.68
2023-11-15T02:17:03.234Z,10.07
2023-11-15T02:19:31.051Z,9.88
2023-11-15T02:21:58.479Z,10.38
2023-11-15T02:24:26.122Z,10.23
2023-11-15T02:26:54.002Z,9.75
2023-11-15T02:29:21.611Z,10.25
2023-11-15T02:31:49.298Z,10.13
2023-11-15T02:34:17.150Z,10.73
2023-11-15T02:36:44.917Z,9.77
2023-11-15T02:39:12.469Z,10.38
2023-11-15T02:41:40.081Z,10.35
2023-11-15T02:44:07.667Z,11.15
2023-11-15T02:46:35.270Z,11.40
2023-11-15T02:49:02.971Z,10.98
2023-11-15T02:51:30.826Z,10.75
2023-11-15T02:53:58.373Z,12.18
2023-11-15T02:56:26.341Z,11.00
2023-11-15T02:58:54.310Z,10.93
2023-11-15T03:01:22.544Z,11.32
2023-11-15T03:03:50.340Z,11.50
2023-11-15T03:06:18.080Z,12.20
2023-11-15T03:08:45.786Z,12.38
2023-11-15T03:11:14.921Z,12.20
2023-11-15T03:13:42.668Z,12.50
2023-11-15T03:16:10.349Z,12.82
2023-11-15T03:18:38.111Z,12.05
2023-11-15T03:21:05.958Z,10.63
2023-11-15T03:23:33.571Z,11.20
2023-11-15T03:26:01.265Z,11.70
2023-11-15T03:28:29.318Z,12.38
2023-11-15T03:30:56.973Z,13.40
2023-11-15T03:33:25.370Z,11.90
2023-11-15T03:35:53.167Z,11.73
2023-11-15T03:38:20.823Z,13.57
2023-11-15T03:40:49.099Z,12.20
2023-11-15T03:43:16.971Z,12.10
2023-11-15T03:45:44.636Z,12.38
2023-11-15T03:48:12.530Z,11.82
2023-11-15T03:50:40.204Z,11.55
2023-11-15T03:53:07.980Z,11.75
2023-11-15T03:55:36.072Z,11.95
2023-11-15T03:58:04.078Z,11.20
2023-11-15T04:00:32.112Z,11.07
2023-11-15T04:02:59.810Z,11.05
2023-11-15T04:05:29.556Z,10.90
2023-11-15T04:07:57.871Z,11.00
2023-11-15T04:10:26.181Z,11.10
2023-11-15T04:12:55.805Z,11.00
2023-11-15T04:15:26.059Z,10.20
2023-11-15T04:17:57.513Z,10.65
2023-11-15T04:20:25.174Z,9.48
2023-11-15T04:22:52.769Z,10.30
2023-11-15T04:25:20.528Z,10.15
2023-11-15T04:27:48.130Z,10.10
2023-11-15T04:30:17.211Z,9.43
2023-11-15T04:32:46.852Z,8.88
2023-11-15T04:35:14.604Z,9.88
2023-11-15T04:37:42.350Z,9.80
2023-11-15T04:40:11.500Z,10.70
2023-11-15T04:42:40.200Z,10.73
2023-11-15T04:45:08.217Z,11.02
2023-11-15T04:47:36.693Z,10.50
2023-11-15T04:50:05.649Z,10.32
2023-11-15T04:52:33.849Z,10.27
2023-11-15T04:55:01.532Z,10.68
2023-11-15T04:57:34.551Z,10.65
2023-11-15T05:00:02.133Z,10.70
2023-11-15T05:02:32.276Z,10.85
2023-11-15T05:05:00.533Z,10.85
2023-11-15T05:07:28.146Z,10.65
2023-11-15T05:09:56.409Z,11.20
2023-11-15T05:12:26.533Z,11.88
2023-11-15T05:14:54.397Z,11.90
2023-11-15T05:17:22.069Z,11.18
2023-11-15T05:19:49.701Z,11.35
2023-11-15T05:22:17.543Z,10.52
2023-11-15T05:24:45.164Z,11.43
2023-11-15T05:27:13.671Z,13.00
2023-11-15T05:29:41.762Z,11.85
2023-11-15T05:32:10.091Z,10.20
2023-11-15T05:34:37.706Z,10.52
2023-11-15T05:37:05.326Z,10.13
2023-11-15T05:39:33.014Z,9.75
2023-11-15T05:42:01.134Z,9.30
2023-11-15T05:44:30.158Z,8.27
2023-11-15T05:46:57.914Z,10.10
2023-11-15T05:49:25.516Z,8.80
2023-11-15T05:51:53.064Z,9.05
2023-11-15T05:54:20.809Z,8.90
2023-11-15T05:56:48.928Z,8.68
2023-11-15T05:59:16.790Z,9.88
2023-11-15T06:01:44.566Z,9.23
2023-11-15T06:04:12.268Z,10.15
2023-11-15T06:06:39.911Z,9.77
2023-11-15T06:09:07.585Z,11.07
2023-11-15T06:11:35.176Z,11.50
2023-11-15T06:14:02.849Z,10.90
2023-11-15T06:16:30.520Z,12.20
2023-11-15T06:18:59.295Z,11.15
2023-11-15T06:21:28.132Z,11.27
2023-11-15T06:23:56.721Z,11.75
2023-11-15T06:26:24.657Z,11.60
2023-11-15T06:28:52.880Z,12.68
2023-11-15T06:31:27.179Z,11.48
2023-11-15T06:33:55.003Z,11.68
2023-11-15T06:36:22.845Z,11.32
2023-11-15T06:38:50.850Z,11.13
2023-11-15T06:41:18.478Z,11.73
2023-11-15T06:43:46.047Z,12.38
2023-11-15T06:46:19.211Z,12.30
2023-11-15T06:48:48.480Z,11.68
2023-11-15T06:51:16.941Z,12.18
2023-11-15T06:53:47.271Z,12.23
2023-11-15T06:56:15.059Z,12.05
2023-11-15T06:58:42.963Z,11.88
2023-11-15T07:01:10.688Z,12.32
2023-11-15T07:03:39.007Z,11.93
2023-11-15T07:06:07.321Z,12.32
2023-11-15T07:08:34.965Z,12.05
2023-11-15T07:11:02.589Z,11.60
2023-11-15T07:13:32.490Z,11.43
2023-11-15T07:16:03.179Z,11.98
2023-11-15T07:18:31.239Z,12.50
2023-11-15T07:20:58.964Z,12.50
2023-11-15T07:23:27.831Z,11.30
2023-11-15T07:25:55.823Z,12.15
2023-11-15T07:28:24.731Z,11.60
2023-11-15T07:30:52.756Z,12.93
2023-11-15T07:33:23.304Z,11.50
2023-11-15T07:35:51.299Z,11.43
2023-11-15T07:38:19.689Z,13.40
2023-11-15T07:40:48.982Z,12.23
2023-11-15T07:43:16.770Z,11.57
2023-11-15T07:45:44.715Z,16.10
2023-11-15T07:48:12.496Z,12.02
2023-11-15T07:50:40.201Z,10.85
2023-11-15T07:53:08.266Z,10.98
2023-11-15T07:55:36.988Z,10.98
2023-11-15T07:58:05.884Z,11.20
2023-11-15T08:00:36.821Z,11.52
2023-11-15T08:03:05.907Z,10.88
2023-11-15T08:05:33.928Z,11.13
2023-11-15T08:08:01.583Z,11.65
2023-11-15T08:10:32.376Z,10.55
2023-11-15T08:13:00.055Z,10.95
2023-11-15T08:15:27.774Z,11.90
2023-11-15T08:17:55.916Z,10.95
2023-11-15T08:20:23.595Z,11.05
2023-11-15T08:22:53.107Z,11.88
2023-11-15T08:25:22.218Z,10.55
2023-11-15T08:27:49.789Z,11.05
2023-11-15T08:30:20.486Z,11.70
2023-11-15T08:32:49.823Z,17.05
2023-11-15T08:35:18.746Z,11.65
2023-11-15T08:37:46.453Z,12.18
2023-11-15T08:40:23.217Z,10.98
2023-11-15T08:42:56.783Z,11.90
2023-11-15T08:45:25.210Z,12.20
2023-11-15T08:47:53.302Z,11.95
2023-11-15T08:50:23.359Z,12.00
2023-11-15T08:52:51.265Z,11.75
2023-11-15T08:55:21.030Z,12.65
2023-11-15T08:57:48.732Z,12.75
2023-11-15T09:00:17.534Z,12.35
2023-11-15T09:02:47.724Z,11.80
2023-11-15T09:05:17.228Z,12.23
2023-11-15T09:07:45.659Z,12.45
2023-11-15T09:10:15.298Z,12.63
2023-11-15T09:12:46.263Z,11.93
2023-11-15T09:15:15.234Z,12.35
2023-11-15T09:17:50.184Z,12.38
2023-11-15T09:20:20.980Z,12.50
2023-11-15T09:22:55.193Z,12.13
2023-11-15T09:25:25.258Z,12.65
2023-11-15T09:27:57.189Z,12.80
2023-11-15T09:30:26.739Z,12.98
2023-11-15T09:32:56.170Z,12.75
2023-11-15T09:35:29.592Z,13.55
2023-11-15T09:38:00.794Z,12.80
2023-11-15T09:40:29.012Z,12.80
2023-11-15T09:43:00.127Z,12.18
2023-11-15T09:45:28.043Z,13.43
2023-11-15T09:47:58.142Z,13.48
2023-11-15T09:50:28.082Z,13.15
2023-11-15T09:52:56.911Z,13.55
2023-11-15T09:55:25.410Z,12.20
2023-11-15T09:57:54.534Z,11.55
2023-11-15T10:00:23.667Z,12.23
2023-11-15T10:02:54.263Z,11.80
2023-11-15T10:05:25.440Z,11.75
2023-11-15T10:07:55.517Z,13.15
2023-11-15T10:10:24.000Z,13.23
2023-11-15T10:12:54.392Z,12.15
2023-11-15T10:15:31.280Z,12.40
2023-11-15T10:17:58.949Z,11.70
2023-11-15T10:20:29.909Z,12.32
2023-11-15T10:22:58.670Z,13.52
2023-11-15T10:25:29.267Z,13.80
2023-11-15T10:28:02.053Z,13.90
2023-11-15T10:30:29.818Z,14.13
2023-11-15T10:33:15.435Z,14.63
2023-11-15T10:35:46.194Z,14.13
2023-11-15T10:38:20.489Z,14.52
2023-11-15T10:40:48.196Z,14.77
2023-11-15T10:43:17.371Z,14.93
2023-11-15T10:45:45.309Z,15.02
2023-11-15T10:48:13.877Z,15.90
2023-11-15T10:50:46.441Z,16.10
2023-11-15T10:53:14.329Z,16.08
2023-11-15T10:55:42.242Z,15.68
2023-11-15T10:58:12.900Z,15.75
2023-11-15T11:00:44.207Z,16.10
2023-11-15T11:03:15.084Z,17.17
2023-11-15T11:05:48.195Z,17.20
2023-11-15T11:08:15.904Z,17.40
2023-11-15T11:10:49.719Z,17.00
2023-11-15T11:13:23.231Z,17.60
2023-11-15T11:15:51.274Z,16.75
2023-11-15T11:18:19.766Z,17.20
2023-11-15T11:21:03.796Z,17.38
2023-11-15T11:23:35.581Z,17.58
2023-11-15T11:26:43.100Z,16.90
2023-11-15T11:29:11.510Z,17.73
2023-11-15T11:31:39.118Z,18.10
2023-11-15T11:34:10.612Z,17.67
2023-11-15T11:36:51.552Z,16.55
2023-11-15T11:39:25.405Z,17.70
2023-11-15T11:41:55.998Z,17.02
2023-11-15T11:44:26.583Z,17.27
2023-11-15T11:47:02.917Z,15.88
2023-11-15T11:49:46.626Z,16.63
2023-11-15T11:52:16.228Z,16.90
2023-11-15T11:54:44.095Z,17.80
2023-11-15T11:57:11.742Z,17.85
2023-11-15T11:59:39.395Z,19.58
2023-11-15T12:02:07.865Z,19.52
2023-11-15T12:04:45.321Z,18.63
2023-11-15T12:07:13.164Z,19.27
2023-11-15T12:09:42.814Z,20.23
2023-11-15T12:12:11.505Z,18.95
2023-11-15T12:14:47.622Z,21.50
2023-11-15T12:17:15.432Z,20.02
2023-11-15T12:19:44.112Z,20.80
2023-11-15T12:22:12.598Z,21.10
2023-11-15T12:24:42.342Z,20.63
2023-11-15T12:27:10.373Z,20.55
2023-11-15T12:29:38.202Z,20.48
2023-11-15T12:32:06.571Z,19.65
2023-11-15T12:34:34.317Z,19.95
2023-11-15T12:37:01.973Z,19.73
2023-11-15T12:39:47.687Z,19.42
2023-11-15T12:42:15.635Z,19.73
2023-11-15T12:44:45.577Z,20.20
2023-11-15T12:47:14.508Z,19.52
2023-11-15T12:49:42.192Z,19.38
2023-11-15T12:52:10.795Z,19.50
2023-11-15T12:54:53.957Z,18.90
2023-11-15T12:59:52.158Z,18.48
2023-11-15T13:02:29.154Z,19.00
2023-11-15T13:04:57.692Z,19.90
2023-11-15T13:07:25.258Z,19.58
2023-11-15T13:09:52.851Z,18.80
2023-11-15T13:12:24.509Z,19.05
2023-11-15T13:14:53.056Z,18.92
2023-11-15T13:17:20.881Z,18.73
2023-11-15T13:19:48.587Z,19.20
2023-11-15T13:22:17.234Z,18.98
2023-11-15T13:24:50.114Z,20.15
2023-11-15T13:27:19.323Z,18.15
2023-11-15T13:29:47.158Z,18.33
2023-11-15T13:32:15.855Z,18.00
2023-11-15T13:34:46.754Z,18.38
2023-11-15T13:37:14.620Z,20.17
2023-11-15T13:39:42.242Z,18.75
2023-11-15T13:42:10.284Z,20.05
2023-11-15T13:44:38.398Z,19.30
2023-11-15T13:47:08.214Z,18.17
2023-11-15T13:49:35.829Z,18.92
2023-11-15T13:52:03.580Z,19.48
2023-11-15T13:54:31.982Z,19.90
2023-11-15T13:56:59.774Z,20.30
2023-11-15T13:59:29.686Z,21.45
2023-11-15T14:01:57.415Z,21.98
2023-11-15T14:04:25.688Z,20.20
2023-11-15T14:06:54.492Z,22.02
2023-11-15T14:09:22.621Z,22.13
2023-11-15T14:11:51.290Z,20.95
2023-11-15T14:14:19.153Z,21.02
2023-11-15T14:16:48.746Z,21.58
2023-11-15T14:19:16.987Z,21.85
2023-11-15T14:21:45.751Z,21.05
2023-11-15T14:24:13.534Z,21.70
2023-11-15T14:26:42.431Z,21.23
2023-11-15T14:29:10.119Z,21.23
2023-11-15T14:31:41.260Z,20.50
2023-11-15T14:34:09.259Z,19.88
2023-11-15T14:36:38.677Z,21.58
2023-11-15T14:39:10.942Z,21.30
2023-11-15T14:41:38.943Z,19.63
2023-11-15T14:44:06.760Z,18.92
2023-11-15T14:46:34.873Z,18.60
2023-11-15T14:49:02.931Z,19.65
2023-11-15T14:51:30.726Z,19.95
2023-11-15T14:54:00.246Z,19.15
2023-11-15T14:56:29.697Z,20.17
2023-11-15T14:59:00.043Z,19.38
2023-11-15T15:01:28.694Z,18.77
2023-11-15T15:03:57.029Z,19.00
2023-11-15T15:06:25.836Z,19.65
2023-11-15T15:08:53.640Z,18.27
2023-11-15T15:11:21.261Z,18.17
2023-11-15T15:13:48.968Z,18.40
2023-11-15T15:16:18.105Z,19.35
2023-11-15T15:18:45.960Z,19.42
2023-11-15T15:21:16.203Z,18.38
2023-11-15T15:23:43.934Z,18.10
2023-11-15T15:26:15.720Z,18.90
2023-11-15T15:28:43.504Z,17.60
2023-11-15T15:31:11.800Z,17.63
2023-11-15T15:33:39.699Z,17.33
2023-11-15T15:36:07.640Z,17.48
2023-11-15T15:38:35.905Z,17.92
2023-11-15T15:41:04.462Z,18.02
2023-11-15T15:43:32.627Z,17.77
2023-11-15T15:46:00.463Z,18.20
2023-11-15T15:48:28.439Z,18.00
2023-11-15T15:50:56.280Z,17.52
2023-11-15T15:53:24.078Z,18.00
2023-11-15T15:55:53.010Z,18.20
2023-11-15T15:58:21.793Z,18.35
2023-11-15T16:00:49.713Z,18.83
2023-11-15T16:03:18.441Z,17.23
2023-11-15T16:05:46.116Z,17.27
2023-11-15T16:08:14.176Z,16.98
2023-11-15T16:10:42.418Z,16.77
2023-11-15T16:13:11.037Z,15.57
2023-11-15T16:15:41.733Z,16.90
2023-11-15T16:18:11.594Z,16.90
2023-11-15T16:20:40.181Z,17.58
2023-11-15T16:23:07.821Z,17.83
2023-11-15T16:25:35.544Z,17.38
2023-11-15T16:28:03.693Z,15.98
2023-11-15T16:30:32.844Z,14.40
2023-11-15T16:33:01.161Z,14.23
2023-11-15T16:35:30.371Z,15.70
2023-11-15T16:37:58.260Z,15.18
2023-11-15T16:40:25.871Z,14.98
2023-11-15T16:42:53.623Z,15.18
2023-11-15T16:45:22.264Z,15.43
2023-11-15T16:47:51.253Z,13.77
2023-11-15T16:50:18.954Z,14.93
2023-11-15T16:52:46.639Z,14.65
2023-11-15T16:55:14.347Z,14.98
2023-11-15T16:57:42.271Z,15.43
2023-11-15T17:00:10.520Z,14.88
2023-11-15T17:02:38.980Z,15.00
2023-11-15T17:05:07.236Z,14.02
2023-11-15T17:07:34.991Z,14.77
2023-11-15T17:10:03.163Z,14.85
2023-11-15T17:12:33.961Z,14.30
2023-11-15T17:15:01.687Z,15.07
2023-11-15T17:17:30.551Z,14.88
2023-11-15T17:19:58.649Z,14.48
2023-11-15T17:22:27.908Z,13.93
2023-11-15T17:24:55.767Z,13.88
2023-11-15T17:27:25.844Z,22.23
2023-11-15T17:29:53.876Z,21.77
2023-11-15T17:32:21.751Z,27.70
2023-11-15T17:34:49.404Z,54.45
2023-11-15T17:37:17.417Z,75.95
2023-11-15T17:39:45.114Z,75.07
2023-11-15T17:42:15.048Z,52.25
2023-11-15T17:44:42.715Z,36.55
2023-11-15T17:47:13.292Z,24.55
2023-11-15T17:49:41.023Z,20.15
2023-11-15T17:52:11.305Z,21.05
2023-11-15T17:54:40.259Z,20.38
2023-11-15T17:57:08.144Z,16.80
2023-11-15T17:59:35.823Z,18.35
2023-11-15T18:02:05.512Z,22.80
2023-11-15T18:04:33.431Z,20.05
2023-11-15T18:07:01.742Z,18.00
2023-11-15T18:09:29.917Z,14.85
2023-11-15T18:11:58.918Z,13.60
2023-11-15T18:14:27.398Z,14.18
2023-11-15T18:16:55.587Z,12.88
2023-11-15T18:19:23.276Z,13.13
2023-11-15T18:21:52.014Z,13.02
2023-11-15T18:24:20.164Z,13.88
2023-11-15T18:26:48.944Z,14.82
2023-11-15T18:29:17.385Z,13.88
2023-11-15T18:31:45.086Z,13.88
2023-11-15T18:34:12.951Z,14.07
2023-11-15T18:36:44.412Z,13.55
2023-11-15T18:39:16.238Z,13.00
2023-11-15T18:41:45.701Z,13.18
2023-11-15T18:44:17.374Z,13.68
2023-11-15T18:46:49.862Z,14.60
2023-11-15T18:49:19.037Z,13.23
2023-11-15T18:51:48.971Z,12.88
2023-11-15T18:54:17.650Z,13.13
2023-11-15T18:56:45.341Z,12.85
2023-11-15T18:59:13.095Z,12.85
2023-11-15T19:01:43.764Z,12.82
2023-11-15T19:04:11.691Z,12.07
2023-11-15T19:06:39.478Z,12.68
2023-11-15T19:09:08.988Z,11.80
2023-11-15T19:11:36.974Z,12.70
2023-11-15T19:14:06.614Z,12.32
2023-11-15T19:16:34.436Z,12.20
2023-11-15T19:19:03.583Z,13.05
2023-11-15T19:21:31.281Z,12.25
2023-11-15T19:24:01.519Z,13.25
2023-11-15T19:26:32.287Z,12.30
2023-11-15T19:29:00.062Z,13.68
2023-11-15T19:31:27.714Z,13.52
2023-11-15T19:33:55.759Z,13.90
2023-11-15T19:36:23.657Z,14.15
2023-11-15T19:38:51.422Z,13.98
2023-11-15T19:41:22.052Z,14.48
2023-11-15T19:43:49.937Z,14.60
2023-11-15T19:46:20.859Z,14.07
2023-11-15T19:48:48.796Z,14.00
2023-11-15T19:51:37.038Z,14.55
2023-11-15T19:54:09.683Z,13.95
2023-11-15T19:56:37.391Z,13.77
2023-11-15T19:59:05.329Z,13.90
2023-11-15T20:01:33.193Z,14.15
2023-11-15T20:04:04.803Z,14.05
2023-11-15T20:06:33.010Z,14.13
2023-11-15T20:09:00.765Z,13.77
2023-11-15T20:11:28.598Z,13.45
2023-11-15T20:13:56.413Z,13.48
2023-11-15T20:16:25.647Z,13.45
2023-11-15T20:18:53.812Z,13.75
2023-11-15T20:21:21.723Z,13.68
2023-11-15T20:23:50.006Z,12.80
2023-11-15T20:26:18.881Z,13.70
2023-11-15T20:28:47.165Z,13.30
2023-11-15T20:31:14.800Z,13.05
2023-11-15T20:33:42.982Z,13.43
2023-11-15T20:36:11.927Z,13.35
2023-11-15T20:38:39.757Z,13.63
2023-11-15T20:41:08.766Z,13.23
2023-11-15T20:43:37.314Z,13.77
2023-11-15T20:46:17.705Z,14.25
2023-11-15T20:48:47.983Z,12.38
2023-11-15T20:51:16.325Z,13.90
2023-11-15T20:53:45.079Z,13.60
2023-11-15T20:56:12.848Z,14.48
2023-11-15T20:58:41.656Z,14.40
2023-11-15T21:01:10.288Z,13.85
2023-11-15T21:03:38.594Z,13.60
2023-11-15T21:06:06.965Z,14.65
2023-11-15T21:08:36.432Z,14.43
2023-11-15T21:11:04.801Z,14.10
2023-11-15T21:13:32.388Z,14.48
2023-11-15T21:16:00.108Z,14.02
2023-11-15T21:18:27.800Z,14.10
2023-11-15T21:20:55.454Z,14.65
2023-11-15T21:23:23.066Z,14.32
2023-11-15T21:25:50.729Z,14.05
2023-11-15T21:28:18.275Z,14.35
2023-11-15T21:30:45.935Z,13.48
2023-11-15T21:33:13.612Z,14.20
2023-11-15T21:35:41.463Z,14.00
2023-11-15T21:38:10.726Z,14.82
2023-11-15T21:40:38.362Z,14.18
2023-11-15T21:43:06.646Z,14.73
2023-11-15T21:45:34.215Z,15.07
2023-11-15T21:48:01.932Z,15.55
2023-11-15T21:50:29.601Z,15.38
2023-11-15T21:52:58.075Z,14.63
2023-11-15T21:55:25.670Z,14.57
2023-11-15T21:57:53.752Z,16.38
2023-11-15T22:00:26.807Z,14.65
2023-11-15T22:02:54.883Z,14.93
2023-11-15T22:05:22.996Z,15.75
2023-11-15T22:07:50.870Z,15.35
2023-11-15T22:10:18.823Z,15.32
2023-11-15T22:12:49.771Z,14.07
2023-11-15T22:15:20.841Z,15.43
2023-11-15T22:17:51.894Z,15.60
2023-11-15T22:20:20.260Z,15.80
2023-11-15T22:22:48.161Z,15.07
2023-11-15T22:25:15.840Z,15.85
2023-11-15T22:27:43.409Z,14.32
2023-11-15T22:30:11.538Z,15.18
2023-11-15T22:32:39.753Z,14.23
2023-11-15T22:35:08.355Z,15.48
2023-11-15T22:37:35.945Z,14.77
2023-11-15T22:40:03.617Z,15.45
2023-11-15T22:42:33.423Z,14.68
2023-11-15T22:45:01.199Z,14.48
2023-11-15T22:47:28.877Z,14.27
2023-11-15T22:49:56.768Z,14.65
2023-11-15T22:52:24.432Z,14.80
2023-11-15T22:54:52.293Z,14.95
2023-11-15T22:57:20.009Z,14.82
2023-11-15T22:59:50.366Z,14.57
2023-11-15T23:02:19.579Z,13.52
2023-11-15T23:04:47.439Z,15.20
2023-11-15T23:07:15.293Z,14.57
2023-11-15T23:09:43.146Z,14.60
2023-11-15T23:12:12.870Z,14.43
2023-11-15T23:14:41.723Z,14.52
2023-11-15T23:17:09.513Z,15.05
2023-11-15T23:19:37.483Z,15.55
2023-11-15T23:22:07.091Z,15.43
2023-11-15T23:24:35.535Z,14.73
2023-11-15T23:27:03.267Z,15.75
2023-11-15T23:29:30.939Z,15.38
2023-11-15T23:31:58.886Z,14.75
2023-11-15T23:34:26.627Z,14.93
2023-11-15T23:36:55.366Z,15.88
2023-11-15T23:39:24.390Z,14.38
2023-11-15T23:41:52.511Z,15.15
2023-11-15T23:44:20.308Z,15.20
2023-11-15T23:46:51.705Z,15.60
2023-11-15T23:49:20.575Z,14.73
2023-11-15T23:51:48.529Z,14.50
2023-11-15T23:54:16.200Z,15.40
2023-11-15T23:56:44.140Z,15.55
2023-11-15T23:59:11.847Z,15.23
